• Join FlightAware (Why Join?)
  • Login
  • US Flag 
02:19PM EDT


 

Airport Tracker/Info


-or-


 

Live Flight TrackerFlight Track Log ✈ CSH9416 ✈ 03-Feb-2014 ✈ ZSLG / LYG - ZSSS / SHA

Flight Track Log - Related Links

Times and Time Zones

All times are in EST time to prevent confusion due to time zone crossing. See the CSH9416 flight status page for this flight to view local times or setup timezone preferences in your user account.

Time Position Orientation Groundspeed Altitude Reporting Facility
EST Latitude Longitude Course Direction KTS MPH feet Rate Location/Type
10:03PM 34.2122 119.1470 148° Southeast  Level Estimated
10:04PM 34.1522 119.1923 148° Southeast  Level Estimated
10:05PM 34.0922 119.2376 148° Southeast  Level Estimated
10:06PM 34.0322 119.2828 148° Southeast  Level Estimated
10:07PM 33.9721 119.3279 148° Southeast  Level Estimated
10:08PM 33.9121 119.3730 148° Southeast  Level Estimated
10:09PM 33.8520 119.4181 148° Southeast  Level Estimated
10:10PM 33.7919 119.4630 148° Southeast  Level Estimated
10:11PM 33.7318 119.5079 148° Southeast  Level Estimated
10:12PM 33.6717 119.5527 148° Southeast  Level Estimated
10:13PM 33.6116 119.5975 148° Southeast  Level Estimated
10:14PM 33.5515 119.6422 148° Southeast  Level Estimated
10:15PM 33.4913 119.6868 148° Southeast  Level Estimated
10:16PM 33.4311 119.7314 148° Southeast  Level Estimated
10:17PM 33.3709 119.7759 148° Southeast  Level Estimated
10:18PM 33.3107 119.8204 148° Southeast  Level Estimated
10:19PM 33.2505 119.8648 148° Southeast  Level Estimated
10:20PM 33.1903 119.9091 148° Southeast  Level Estimated
10:21PM 33.1300 119.9534 148° Southeast  Level Estimated
10:22PM 33.0698 119.9976 148° Southeast  Level Estimated
10:23PM 33.0095 120.0417 148° Southeast  Level Estimated
10:24PM 32.9492 120.0858 148° Southeast  Level Estimated
10:25PM 32.8889 120.1298 148° Southeast  Level Estimated
10:26PM 32.8285 120.1738 149° Southeast  Level Estimated
10:27PM 32.7682 120.2177 149° Southeast  Level Estimated
10:28PM 32.7078 120.2616 149° Southeast  Level Estimated
10:29PM 32.6474 120.3054 149° Southeast  Level Estimated
10:30PM 32.5870 120.3491 149° Southeast  Level Estimated
10:31PM 32.5266 120.3928 149° Southeast  Level Estimated
10:32PM 32.4662 120.4364 149° Southeast  Level Estimated
10:33PM 32.4058 120.4799 149° Southeast  Level Estimated
10:34PM 32.3453 120.5234 149° Southeast  Level Estimated
10:35PM 32.2849 120.5669 149° Southeast  Level Estimated
10:36PM 32.2244 120.6103 149° Southeast  Level Estimated
10:37PM 32.1639 120.6536 149° Southeast  Level Estimated
10:38PM 32.1034 120.6968 149° Southeast  Level Estimated
10:39PM 32.0428 120.7401 149° Southeast  Level Estimated
10:40PM 31.9823 120.7832 149° Southeast  Level Estimated
10:41PM 31.9217 120.8263 149° Southeast  Level Estimated
10:42PM 31.8612 120.8693 149° Southeast  Level Estimated
10:43PM 31.8006 120.9123 149° Southeast  Level Estimated
10:44PM 31.7400 120.9552 149° Southeast  Level Estimated
10:45PM 31.6794 120.9981 149° Southeast  Level Estimated
10:46PM 31.6187 121.0409 149° Southeast  Level Estimated
10:47PM 31.5581 121.0837 149° Southeast  Level Estimated
10:48PM 31.4974 121.1264 149° Southeast  Level Estimated
10:49PM 31.4368 121.1690 149° Southeast  Level Estimated
10:50PM 31.3761 121.2116 149° Southeast  Level Estimated
10:51PM 31.3154 121.2542 149° Southeast  Level Estimated
10:52PM 31.2547 121.2966 149° Southeast  Level Estimated
10:53PM 31.1979 121.3363 149° Southeast  Level Estimated
10:54PM 31.1979 121.3363 190° South  Level Estimated
10:55PM 31.1979 121.3363 350° North  Level Estimated
10:56PM 31.1979 121.3363 350° North  Level Estimated
10:57PM 31.1979 121.3363 350° North  Level Estimated
10:58PM 31.1979 121.3363 350° North  Level Estimated
10:59PM 31.1979 121.3363 350° North  Level Estimated
11:00PM 31.1979 121.3363 350° North  Level Estimated
11:01PM 31.1979 121.3363 350° North  Level Estimated
11:02PM 31.1979 121.3363 350° North  Level Estimated
11:03PM 31.1979 121.3363 350° North  Level Estimated
11:04PM 31.1979 121.3363 350° North  Level Estimated